sensor_id;sensor_type;location;lat;lon;timestamp;temperature;humidity
75190;HTU21D;69198;44.694;37.790;2023-12-14T00:00:28;8.73;87.25
75190;HTU21D;69198;44.694;37.790;2023-12-14T00:01:28;8.76;87.25
75190;HTU21D;69198;44.694;37.790;2023-12-14T00:02:30;8.77;87.22
75190;HTU21D;69198;44.694;37.790;2023-12-14T00:03:31;8.79;87.22
75190;HTU21D;69198;44.694;37.790;2023-12-14T00:04:32;8.81;87.20
75190;HTU21D;69198;44.694;37.790;2023-12-14T00:05:33;8.81;87.18
75190;HTU21D;69198;44.694;37.790;2023-12-14T00:06:34;8.86;87.15
75190;HTU21D;69198;44.694;37.790;2023-12-14T00:07:35;8.87;87.13
75190;HTU21D;69198;44.694;37.790;2023-12-14T00:08:36;8.88;87.10
75190;HTU21D;69198;44.694;37.790;2023-12-14T00:09:37;8.89;87.08
75190;HTU21D;69198;44.694;37.790;2023-12-14T00:10:38;8.91;87.06
75190;HTU21D;69198;44.694;37.790;2023-12-14T00:11:39;8.93;87.05
75190;HTU21D;69198;44.694;37.790;2023-12-14T00:12:40;8.96;87.04
75190;HTU21D;69198;44.694;37.790;2023-12-14T00:13:41;8.97;87.04
75190;HTU21D;69198;44.694;37.790;2023-12-14T00:14:42;8.98;87.04
75190;HTU21D;69198;44.694;37.790;2023-12-14T00:15:43;9.00;87.03
75190;HTU21D;69198;44.694;37.790;2023-12-14T00:16:45;9.02;87.05
75190;HTU21D;69198;44.694;37.790;2023-12-14T00:17:46;9.04;87.03
75190;HTU21D;69198;44.694;37.790;2023-12-14T00:18:47;9.06;87.02
75190;HTU21D;69198;44.694;37.790;2023-12-14T00:19:48;9.06;87.05
75190;HTU21D;69198;44.694;37.790;2023-12-14T00:20:49;9.07;87.05
75190;HTU21D;69198;44.694;37.790;2023-12-14T00:21:50;9.08;87.06
75190;HTU21D;69198;44.694;37.790;2023-12-14T00:22:51;9.10;87.06
75190;HTU21D;69198;44.694;37.790;2023-12-14T00:23:52;9.10;87.04
75190;HTU21D;69198;44.694;37.790;2023-12-14T00:24:54;9.11;87.04
75190;HTU21D;69198;44.694;37.790;2023-12-14T00:25:55;9.12;87.00
75190;HTU21D;69198;44.694;37.790;2023-12-14T00:26:56;9.14;86.99
75190;HTU21D;69198;44.694;37.790;2023-12-14T00:27:57;9.15;86.96
75190;HTU21D;69198;44.694;37.790;2023-12-14T00:28:58;9.16;86.95
75190;HTU21D;69198;44.694;37.790;2023-12-14T00:29:59;9.16;86.93
75190;HTU21D;69198;44.694;37.790;2023-12-14T00:31:01;9.16;86.93
75190;HTU21D;69198;44.694;37.790;2023-12-14T00:32:01;9.17;86.90
75190;HTU21D;69198;44.694;37.790;2023-12-14T00:33:03;9.18;86.88
75190;HTU21D;69198;44.694;37.790;2023-12-14T00:34:04;9.18;86.86
75190;HTU21D;69198;44.694;37.790;2023-12-14T00:35:07;9.19;86.87
75190;HTU21D;69198;44.694;37.790;2023-12-14T00:36:08;9.20;86.86
75190;HTU21D;69198;44.694;37.790;2023-12-14T00:37:09;9.19;86.86
75190;HTU21D;69198;44.694;37.790;2023-12-14T00:38:10;9.19;86.86
75190;HTU21D;69198;44.694;37.790;2023-12-14T00:39:11;9.20;86.86
75190;HTU21D;69198;44.694;37.790;2023-12-14T00:40:13;9.20;86.90
75190;HTU21D;69198;44.694;37.790;2023-12-14T00:41:14;9.21;86.90
75190;HTU21D;69198;44.694;37.790;2023-12-14T00:42:15;9.22;86.92
75190;HTU21D;69198;44.694;37.790;2023-12-14T00:43:16;9.23;86.92
75190;HTU21D;69198;44.694;37.790;2023-12-14T00:44:17;9.24;86.88
75190;HTU21D;69198;44.694;37.790;2023-12-14T00:45:18;9.25;86.88
75190;HTU21D;69198;44.694;37.790;2023-12-14T00:46:19;9.26;86.89
75190;HTU21D;69198;44.694;37.790;2023-12-14T00:47:20;9.27;86.90
75190;HTU21D;69198;44.694;37.790;2023-12-14T00:48:21;9.29;86.93
75190;HTU21D;69198;44.694;37.790;2023-12-14T00:49:22;9.26;86.93
75190;HTU21D;69198;44.694;37.790;2023-12-14T00:50:23;9.29;86.96
75190;HTU21D;69198;44.694;37.790;2023-12-14T00:51:24;9.30;86.95
75190;HTU21D;69198;44.694;37.790;2023-12-14T00:52:25;9.30;86.93
75190;HTU21D;69198;44.694;37.790;2023-12-14T00:53:26;9.30;86.97
75190;HTU21D;69198;44.694;37.790;2023-12-14T00:54:27;9.31;86.99
75190;HTU21D;69198;44.694;37.790;2023-12-14T00:55:28;9.29;87.02
75190;HTU21D;69198;44.694;37.790;2023-12-14T00:56:29;9.30;87.03
75190;HTU21D;69198;44.694;37.790;2023-12-14T00:57:30;9.30;87.03
75190;HTU21D;69198;44.694;37.790;2023-12-14T00:58:31;9.31;87.02
75190;HTU21D;69198;44.694;37.790;2023-12-14T00:59:32;9.30;87.02
75190;HTU21D;69198;44.694;37.790;2023-12-14T01:00:33;9.29;87.03
75190;HTU21D;69198;44.694;37.790;2023-12-14T01:01:34;9.27;87.04
75190;HTU21D;69198;44.694;37.790;2023-12-14T01:02:35;9.26;87.06
75190;HTU21D;69198;44.694;37.790;2023-12-14T01:03:36;9.24;87.08
75190;HTU21D;69198;44.694;37.790;2023-12-14T01:04:37;9.22;87.12
75190;HTU21D;69198;44.694;37.790;2023-12-14T01:05:38;9.22;87.16
75190;HTU21D;69198;44.694;37.790;2023-12-14T01:06:40;9.18;87.18
75190;HTU21D;69198;44.694;37.790;2023-12-14T01:07:41;9.17;87.20
75190;HTU21D;69198;44.694;37.790;2023-12-14T01:08:42;9.14;87.22
75190;HTU21D;69198;44.694;37.790;2023-12-14T01:09:43;9.12;87.25
75190;HTU21D;69198;44.694;37.790;2023-12-14T01:10:44;9.08;87.28
75190;HTU21D;69198;44.694;37.790;2023-12-14T01:11:45;9.05;87.33
75190;HTU21D;69198;44.694;37.790;2023-12-14T01:12:46;9.03;87.37
75190;HTU21D;69198;44.694;37.790;2023-12-14T01:13:47;9.00;87.39
75190;HTU21D;69198;44.694;37.790;2023-12-14T01:14:48;8.95;87.45
75190;HTU21D;69198;44.694;37.790;2023-12-14T01:15:49;8.92;87.50
75190;HTU21D;69198;44.694;37.790;2023-12-14T01:16:50;8.89;87.54
75190;HTU21D;69198;44.694;37.790;2023-12-14T01:17:51;8.88;87.57
75190;HTU21D;69198;44.694;37.790;2023-12-14T01:18:52;8.83;87.61
75190;HTU21D;69198;44.694;37.790;2023-12-14T01:19:53;8.82;87.66
75190;HTU21D;69198;44.694;37.790;2023-12-14T01:20:54;8.80;87.67
75190;HTU21D;69198;44.694;37.790;2023-12-14T01:21:55;8.77;87.70
75190;HTU21D;69198;44.694;37.790;2023-12-14T01:22:56;8.75;87.73
75190;HTU21D;69198;44.694;37.790;2023-12-14T01:23:57;8.73;87.80
75190;HTU21D;69198;44.694;37.790;2023-12-14T01:24:58;8.73;87.83
75190;HTU21D;69198;44.694;37.790;2023-12-14T01:26:00;8.70;87.84
75190;HTU21D;69198;44.694;37.790;2023-12-14T01:27:01;8.67;87.86
75190;HTU21D;69198;44.694;37.790;2023-12-14T01:28:02;8.62;87.92
75190;HTU21D;69198;44.694;37.790;2023-12-14T01:29:03;8.59;88.06
75190;HTU21D;69198;44.694;37.790;2023-12-14T01:30:04;8.57;88.12
75190;HTU21D;69198;44.694;37.790;2023-12-14T01:31:05;8.55;88.24
75190;HTU21D;69198;44.694;37.790;2023-12-14T01:32:06;8.51;88.24
75190;HTU21D;69198;44.694;37.790;2023-12-14T01:33:07;8.50;88.24
75190;HTU21D;69198;44.694;37.790;2023-12-14T01:34:08;8.47;88.22
75190;HTU21D;69198;44.694;37.790;2023-12-14T01:35:12;8.43;88.23
75190;HTU21D;69198;44.694;37.790;2023-12-14T01:36:22;8.42;88.27
75190;HTU21D;69198;44.694;37.790;2023-12-14T01:37:24;8.36;88.34
75190;HTU21D;69198;44.694;37.790;2023-12-14T01:38:25;8.34;88.35
75190;HTU21D;69198;44.694;37.790;2023-12-14T01:39:26;8.29;88.38
75190;HTU21D;69198;44.694;37.790;2023-12-14T01:40:27;8.27;88.46
75190;HTU21D;69198;44.694;37.790;2023-12-14T01:41:28;8.24;88.51
75190;HTU21D;69198;44.694;37.790;2023-12-14T01:42:29;8.22;88.47
75190;HTU21D;69198;44.694;37.790;2023-12-14T01:43:30;8.20;88.48
75190;HTU21D;69198;44.694;37.790;2023-12-14T01:44:31;8.17;88.53
75190;HTU21D;69198;44.694;37.790;2023-12-14T01:45:32;8.13;88.57
75190;HTU21D;69198;44.694;37.790;2023-12-14T01:46:33;8.09;88.59
75190;HTU21D;69198;44.694;37.790;2023-12-14T01:47:34;8.06;88.68
75190;HTU21D;69198;44.694;37.790;2023-12-14T01:48:35;8.02;88.73
75190;HTU21D;69198;44.694;37.790;2023-12-14T01:49:36;8.00;88.80
75190;HTU21D;69198;44.694;37.790;2023-12-14T01:50:38;7.98;88.86
75190;HTU21D;69198;44.694;37.790;2023-12-14T01:51:38;7.94;88.94
75190;HTU21D;69198;44.694;37.790;2023-12-14T01:52:40;7.91;88.97
75190;HTU21D;69198;44.694;37.790;2023-12-14T01:53:41;7.89;89.02
75190;HTU21D;69198;44.694;37.790;2023-12-14T01:54:42;7.89;89.08
75190;HTU21D;69198;44.694;37.790;2023-12-14T01:55:43;7.89;89.14
75190;HTU21D;69198;44.694;37.790;2023-12-14T01:56:44;7.90;89.18
75190;HTU21D;69198;44.694;37.790;2023-12-14T01:57:46;7.92;89.18
75190;HTU21D;69198;44.694;37.790;2023-12-14T01:58:48;7.97;89.18
75190;HTU21D;69198;44.694;37.790;2023-12-14T01:59:48;8.01;89.16
75190;HTU21D;69198;44.694;37.790;2023-12-14T02:01:03;8.06;89.08
75190;HTU21D;69198;44.694;37.790;2023-12-14T02:02:04;8.07;89.09
75190;HTU21D;69198;44.694;37.790;2023-12-14T02:03:06;8.12;89.01
75190;HTU21D;69198;44.694;37.790;2023-12-14T02:04:07;8.16;88.94
75190;HTU21D;69198;44.694;37.790;2023-12-14T02:05:08;8.19;88.89
75190;HTU21D;69198;44.694;37.790;2023-12-14T02:06:09;8.21;88.83
75190;HTU21D;69198;44.694;37.790;2023-12-14T02:07:11;8.23;88.78
75190;HTU21D;69198;44.694;37.790;2023-12-14T02:08:12;8.28;88.72
75190;HTU21D;69198;44.694;37.790;2023-12-14T02:09:13;8.29;88.67
75190;HTU21D;69198;44.694;37.790;2023-12-14T02:10:14;8.30;88.64
75190;HTU21D;69198;44.694;37.790;2023-12-14T02:11:15;8.30;88.62
75190;HTU21D;69198;44.694;37.790;2023-12-14T02:12:16;8.32;88.67
75190;HTU21D;69198;44.694;37.790;2023-12-14T02:13:17;8.35;88.67
75190;HTU21D;69198;44.694;37.790;2023-12-14T02:14:21;8.39;88.65
75190;HTU21D;69198;44.694;37.790;2023-12-14T02:15:22;8.43;88.62
75190;HTU21D;69198;44.694;37.790;2023-12-14T02:16:23;8.47;88.58
75190;HTU21D;69198;44.694;37.790;2023-12-14T02:17:24;8.49;88.55
75190;HTU21D;69198;44.694;37.790;2023-12-14T02:18:25;8.52;88.50
75190;HTU21D;69198;44.694;37.790;2023-12-14T02:19:26;8.57;88.47
75190;HTU21D;69198;44.694;37.790;2023-12-14T02:20:27;8.59;88.41
75190;HTU21D;69198;44.694;37.790;2023-12-14T02:21:28;8.62;88.36
75190;HTU21D;69198;44.694;37.790;2023-12-14T02:22:52;8.65;88.29
75190;HTU21D;69198;44.694;37.790;2023-12-14T02:23:53;8.66;88.29
75190;HTU21D;69198;44.694;37.790;2023-12-14T02:24:54;8.65;88.18
75190;HTU21D;69198;44.694;37.790;2023-12-14T02:25:55;8.64;88.17
75190;HTU21D;69198;44.694;37.790;2023-12-14T02:26:56;8.61;88.20
75190;HTU21D;69198;44.694;37.790;2023-12-14T02:27:58;8.60;88.33
75190;HTU21D;69198;44.694;37.790;2023-12-14T02:28:59;8.57;88.41
75190;HTU21D;69198;44.694;37.790;2023-12-14T02:30:00;8.58;88.49
75190;HTU21D;69198;44.694;37.790;2023-12-14T02:31:01;8.60;88.49
75190;HTU21D;69198;44.694;37.790;2023-12-14T02:32:02;8.61;88.46
75190;HTU21D;69198;44.694;37.790;2023-12-14T02:33:03;8.65;88.44
75190;HTU21D;69198;44.694;37.790;2023-12-14T02:34:04;8.66;88.36
75190;HTU21D;69198;44.694;37.790;2023-12-14T02:35:06;8.70;88.31
75190;HTU21D;69198;44.694;37.790;2023-12-14T02:36:07;8.72;88.25
75190;HTU21D;69198;44.694;37.790;2023-12-14T02:37:08;8.74;88.19
75190;HTU21D;69198;44.694;37.790;2023-12-14T02:38:10;8.76;88.15
75190;HTU21D;69198;44.694;37.790;2023-12-14T02:39:11;8.79;88.15
75190;HTU21D;69198;44.694;37.790;2023-12-14T02:40:12;8.81;88.09
75190;HTU21D;69198;44.694;37.790;2023-12-14T02:41:13;8.83;88.04
75190;HTU21D;69198;44.694;37.790;2023-12-14T02:42:14;8.86;87.99
75190;HTU21D;69198;44.694;37.790;2023-12-14T02:43:15;8.90;87.96
75190;HTU21D;69198;44.694;37.790;2023-12-14T02:44:16;8.90;87.95
75190;HTU21D;69198;44.694;37.790;2023-12-14T02:45:17;8.91;87.92
75190;HTU21D;69198;44.694;37.790;2023-12-14T02:46:18;8.93;87.89
75190;HTU21D;69198;44.694;37.790;2023-12-14T02:47:20;8.93;87.92
75190;HTU21D;69198;44.694;37.790;2023-12-14T02:48:21;8.96;87.91
75190;HTU21D;69198;44.694;37.790;2023-12-14T02:49:22;8.98;87.92
75190;HTU21D;69198;44.694;37.790;2023-12-14T02:50:23;9.03;87.86
75190;HTU21D;69198;44.694;37.790;2023-12-14T02:51:24;9.06;87.75
75190;HTU21D;69198;44.694;37.790;2023-12-14T02:52:25;9.10;87.65
75190;HTU21D;69198;44.694;37.790;2023-12-14T02:53:27;9.15;87.62
75190;HTU21D;69198;44.694;37.790;2023-12-14T02:54:28;9.22;87.51
75190;HTU21D;69198;44.694;37.790;2023-12-14T02:55:29;9.29;87.35
75190;HTU21D;69198;44.694;37.790;2023-12-14T02:56:30;9.33;87.21
75190;HTU21D;69198;44.694;37.790;2023-12-14T02:57:31;9.38;87.04
75190;HTU21D;69198;44.694;37.790;2023-12-14T02:58:32;9.42;86.86
75190;HTU21D;69198;44.694;37.790;2023-12-14T02:59:33;9.47;86.68
75190;HTU21D;69198;44.694;37.790;2023-12-14T03:00:34;9.50;86.51
75190;HTU21D;69198;44.694;37.790;2023-12-14T03:01:35;9.54;86.30
75190;HTU21D;69198;44.694;37.790;2023-12-14T03:02:37;9.55;86.14
75190;HTU21D;69198;44.694;37.790;2023-12-14T03:03:38;9.57;86.05
75190;HTU21D;69198;44.694;37.790;2023-12-14T03:04:40;9.56;85.97
75190;HTU21D;69198;44.694;37.790;2023-12-14T03:05:41;9.59;85.94
75190;HTU21D;69198;44.694;37.790;2023-12-14T03:06:42;9.61;85.87
75190;HTU21D;69198;44.694;37.790;2023-12-14T03:07:43;9.64;85.78
75190;HTU21D;69198;44.694;37.790;2023-12-14T03:08:44;9.67;85.66
75190;HTU21D;69198;44.694;37.790;2023-12-14T03:09:45;9.69;85.56
75190;HTU21D;69198;44.694;37.790;2023-12-14T03:10:46;9.69;85.51
75190;HTU21D;69198;44.694;37.790;2023-12-14T03:11:48;9.69;85.48
75190;HTU21D;69198;44.694;37.790;2023-12-14T03:12:49;9.69;85.45
75190;HTU21D;69198;44.694;37.790;2023-12-14T03:13:50;9.70;85.38
75190;HTU21D;69198;44.694;37.790;2023-12-14T03:14:51;9.68;85.34
75190;HTU21D;69198;44.694;37.790;2023-12-14T03:15:52;9.68;85.37
75190;HTU21D;69198;44.694;37.790;2023-12-14T03:16:53;9.65;85.38
75190;HTU21D;69198;44.694;37.790;2023-12-14T03:17:54;9.65;85.41
75190;HTU21D;69198;44.694;37.790;2023-12-14T03:18:55;9.63;85.42
75190;HTU21D;69198;44.694;37.790;2023-12-14T03:19:57;9.62;85.44
75190;HTU21D;69198;44.694;37.790;2023-12-14T03:20:58;9.60;85.53
75190;HTU21D;69198;44.694;37.790;2023-12-14T03:21:59;9.60;85.59
75190;HTU21D;69198;44.694;37.790;2023-12-14T03:23:00;9.60;85.61
75190;HTU21D;69198;44.694;37.790;2023-12-14T03:24:01;9.60;85.58
75190;HTU21D;69198;44.694;37.790;2023-12-14T03:25:02;9.60;85.56
75190;HTU21D;69198;44.694;37.790;2023-12-14T03:26:05;9.59;85.59
75190;HTU21D;69198;44.694;37.790;2023-12-14T03:27:06;9.57;85.64
75190;HTU21D;69198;44.694;37.790;2023-12-14T03:28:07;9.60;85.65
75190;HTU21D;69198;44.694;37.790;2023-12-14T03:29:08;9.64;85.67
75190;HTU21D;69198;44.694;37.790;2023-12-14T03:30:09;9.67;85.57
75190;HTU21D;69198;44.694;37.790;2023-12-14T03:31:11;9.71;85.50
75190;HTU21D;69198;44.694;37.790;2023-12-14T03:32:13;9.77;85.41
75190;HTU21D;69198;44.694;37.790;2023-12-14T03:33:14;9.83;85.28
75190;HTU21D;69198;44.694;37.790;2023-12-14T03:34:17;9.86;85.14
75190;HTU21D;69198;44.694;37.790;2023-12-14T03:35:18;9.92;85.03
75190;HTU21D;69198;44.694;37.790;2023-12-14T03:36:19;9.95;84.90
75190;HTU21D;69198;44.694;37.790;2023-12-14T03:37:20;9.97;84.82
75190;HTU21D;69198;44.694;37.790;2023-12-14T03:38:22;9.99;84.72
75190;HTU21D;69198;44.694;37.790;2023-12-14T03:39:23;10.04;84.61
75190;HTU21D;69198;44.694;37.790;2023-12-14T03:40:24;10.07;84.45
75190;HTU21D;69198;44.694;37.790;2023-12-14T03:41:25;10.11;84.31
75190;HTU21D;69198;44.694;37.790;2023-12-14T03:42:26;10.13;84.19
75190;HTU21D;69198;44.694;37.790;2023-12-14T03:43:27;10.16;84.06
75190;HTU21D;69198;44.694;37.790;2023-12-14T03:44:28;10.18;83.97
75190;HTU21D;69198;44.694;37.790;2023-12-14T03:45:29;10.19;83.90
75190;HTU21D;69198;44.694;37.790;2023-12-14T03:46:31;10.20;83.80
75190;HTU21D;69198;44.694;37.790;2023-12-14T03:47:32;10.22;83.68
75190;HTU21D;69198;44.694;37.790;2023-12-14T03:48:33;10.23;83.55
75190;HTU21D;69198;44.694;37.790;2023-12-14T03:49:38;10.23;83.43
75190;HTU21D;69198;44.694;37.790;2023-12-14T03:50:39;10.23;83.36
75190;HTU21D;69198;44.694;37.790;2023-12-14T03:51:40;10.25;83.27
75190;HTU21D;69198;44.694;37.790;2023-12-14T03:52:41;10.24;83.32
75190;HTU21D;69198;44.694;37.790;2023-12-14T03:53:42;10.24;83.51
75190;HTU21D;69198;44.694;37.790;2023-12-14T03:54:43;10.24;83.65
75190;HTU21D;69198;44.694;37.790;2023-12-14T03:55:44;10.23;83.79
75190;HTU21D;69198;44.694;37.790;2023-12-14T03:56:45;10.24;83.97
75190;HTU21D;69198;44.694;37.790;2023-12-14T03:57:46;10.23;84.20
75190;HTU21D;69198;44.694;37.790;2023-12-14T03:58:48;10.24;84.33
75190;HTU21D;69198;44.694;37.790;2023-12-14T03:59:49;10.23;84.40
75190;HTU21D;69198;44.694;37.790;2023-12-14T04:00:50;10.24;84.39
75190;HTU21D;69198;44.694;37.790;2023-12-14T04:01:51;10.25;84.44
75190;HTU21D;69198;44.694;37.790;2023-12-14T04:02:52;10.26;84.48
75190;HTU21D;69198;44.694;37.790;2023-12-14T04:03:53;10.27;84.44
75190;HTU21D;69198;44.694;37.790;2023-12-14T04:04:54;10.27;84.44
75190;HTU21D;69198;44.694;37.790;2023-12-14T04:05:55;10.25;84.46
75190;HTU21D;69198;44.694;37.790;2023-12-14T04:06:56;10.26;84.50
75190;HTU21D;69198;44.694;37.790;2023-12-14T04:07:57;10.23;84.56
75190;HTU21D;69198;44.694;37.790;2023-12-14T04:08:58;10.23;84.61
75190;HTU21D;69198;44.694;37.790;2023-12-14T04:09:59;10.22;84.64
75190;HTU21D;69198;44.694;37.790;2023-12-14T04:11:00;10.22;84.55
75190;HTU21D;69198;44.694;37.790;2023-12-14T04:12:01;10.23;84.39
75190;HTU21D;69198;44.694;37.790;2023-12-14T04:13:02;10.25;84.20
75190;HTU21D;69198;44.694;37.790;2023-12-14T04:14:04;10.23;84.06
75190;HTU21D;69198;44.694;37.790;2023-12-14T04:15:06;10.25;83.86
75190;HTU21D;69198;44.694;37.790;2023-12-14T04:16:07;10.27;83.68
75190;HTU21D;69198;44.694;37.790;2023-12-14T04:17:08;10.29;83.47
75190;HTU21D;69198;44.694;37.790;2023-12-14T04:18:10;10.33;83.23
75190;HTU21D;69198;44.694;37.790;2023-12-14T04:19:10;10.36;82.96
75190;HTU21D;69198;44.694;37.790;2023-12-14T04:20:13;10.38;82.76
75190;HTU21D;69198;44.694;37.790;2023-12-14T04:21:16;10.38;82.56
75190;HTU21D;69198;44.694;37.790;2023-12-14T04:22:17;10.40;82.33
75190;HTU21D;69198;44.694;37.790;2023-12-14T04:23:18;10.40;82.13
75190;HTU21D;69198;44.694;37.790;2023-12-14T04:24:19;10.43;81.95
75190;HTU21D;69198;44.694;37.790;2023-12-14T04:25:20;10.44;81.81
75190;HTU21D;69198;44.694;37.790;2023-12-14T04:26:22;10.48;81.71
75190;HTU21D;69198;44.694;37.790;2023-12-14T04:27:23;10.49;81.58
75190;HTU21D;69198;44.694;37.790;2023-12-14T04:28:27;10.51;81.49
75190;HTU21D;69198;44.694;37.790;2023-12-14T04:29:28;10.53;81.43
75190;HTU21D;69198;44.694;37.790;2023-12-14T04:30:30;10.52;81.29
75190;HTU21D;69198;44.694;37.790;2023-12-14T04:31:31;10.55;81.20
75190;HTU21D;69198;44.694;37.790;2023-12-14T04:32:32;10.56;81.23
75190;HTU21D;69198;44.694;37.790;2023-12-14T04:33:33;10.58;81.22
75190;HTU21D;69198;44.694;37.790;2023-12-14T04:34:34;10.59;81.23
75190;HTU21D;69198;44.694;37.790;2023-12-14T04:35:35;10.59;81.24
75190;HTU21D;69198;44.694;37.790;2023-12-14T04:36:37;10.59;81.24
75190;HTU21D;69198;44.694;37.790;2023-12-14T04:37:38;10.60;81.21
75190;HTU21D;69198;44.694;37.790;2023-12-14T04:38:39;10.62;81.19
75190;HTU21D;69198;44.694;37.790;2023-12-14T04:39:40;10.60;81.17
75190;HTU21D;69198;44.694;37.790;2023-12-14T04:40:41;10.62;81.16
75190;HTU21D;69198;44.694;37.790;2023-12-14T04:41:42;10.60;81.14
75190;HTU21D;69198;44.694;37.790;2023-12-14T04:42:43;10.63;81.17
75190;HTU21D;69198;44.694;37.790;2023-12-14T04:43:44;10.64;81.17
75190;HTU21D;69198;44.694;37.790;2023-12-14T04:44:46;10.65;81.16
75190;HTU21D;69198;44.694;37.790;2023-12-14T04:45:47;10.63;81.34
75190;HTU21D;69198;44.694;37.790;2023-12-14T04:46:49;10.59;81.56
75190;HTU21D;69198;44.694;37.790;2023-12-14T04:47:50;10.56;81.77
75190;HTU21D;69198;44.694;37.790;2023-12-14T04:48:51;10.54;81.95
75190;HTU21D;69198;44.694;37.790;2023-12-14T04:49:52;10.54;82.13
75190;HTU21D;69198;44.694;37.790;2023-12-14T04:50:53;10.53;82.29
75190;HTU21D;69198;44.694;37.790;2023-12-14T04:51:54;10.51;82.44
75190;HTU21D;69198;44.694;37.790;2023-12-14T04:52:55;10.53;82.55
75190;HTU21D;69198;44.694;37.790;2023-12-14T04:53:56;10.51;82.64
75190;HTU21D;69198;44.694;37.790;2023-12-14T04:54:58;10.52;82.73
75190;HTU21D;69198;44.694;37.790;2023-12-14T04:55:59;10.50;82.84
75190;HTU21D;69198;44.694;37.790;2023-12-14T04:57:00;10.48;82.98
75190;HTU21D;69198;44.694;37.790;2023-12-14T04:58:01;10.46;83.10
75190;HTU21D;69198;44.694;37.790;2023-12-14T04:59:02;10.44;83.21
75190;HTU21D;69198;44.694;37.790;2023-12-14T05:00:05;10.46;83.34
75190;HTU21D;69198;44.694;37.790;2023-12-14T05:01:06;10.46;83.45
75190;HTU21D;69198;44.694;37.790;2023-12-14T05:02:07;10.49;83.45
75190;HTU21D;69198;44.694;37.790;2023-12-14T05:03:09;10.50;83.42
75190;HTU21D;69198;44.694;37.790;2023-12-14T05:04:10;10.51;83.42
75190;HTU21D;69198;44.694;37.790;2023-12-14T05:05:11;10.52;83.50
75190;HTU21D;69198;44.694;37.790;2023-12-14T05:06:13;10.52;83.58
75190;HTU21D;69198;44.694;37.790;2023-12-14T05:07:14;10.53;83.67
75190;HTU21D;69198;44.694;37.790;2023-12-14T05:08:15;10.53;83.68
75190;HTU21D;69198;44.694;37.790;2023-12-14T05:09:17;10.53;83.76
75190;HTU21D;69198;44.694;37.790;2023-12-14T05:10:18;10.49;83.85
75190;HTU21D;69198;44.694;37.790;2023-12-14T05:11:19;10.50;83.86
75190;HTU21D;69198;44.694;37.790;2023-12-14T05:12:20;10.50;83.85
75190;HTU21D;69198;44.694;37.790;2023-12-14T05:13:21;10.48;83.93
75190;HTU21D;69198;44.694;37.790;2023-12-14T05:14:22;10.48;83.95
75190;HTU21D;69198;44.694;37.790;2023-12-14T05:15:23;10.48;83.97
75190;HTU21D;69198;44.694;37.790;2023-12-14T05:16:24;10.48;83.96
75190;HTU21D;69198;44.694;37.790;2023-12-14T05:17:28;10.46;83.94
75190;HTU21D;69198;44.694;37.790;2023-12-14T05:18:29;10.48;83.86
75190;HTU21D;69198;44.694;37.790;2023-12-14T05:19:33;10.48;83.78
75190;HTU21D;69198;44.694;37.790;2023-12-14T05:20:35;10.46;83.76
75190;HTU21D;69198;44.694;37.790;2023-12-14T05:21:36;10.49;83.73
75190;HTU21D;69198;44.694;37.790;2023-12-14T05:22:38;10.49;83.71
75190;HTU21D;69198;44.694;37.790;2023-12-14T05:23:39;10.48;83.67
75190;HTU21D;69198;44.694;37.790;2023-12-14T05:24:40;10.48;83.65
75190;HTU21D;69198;44.694;37.790;2023-12-14T05:25:41;10.46;83.68
75190;HTU21D;69198;44.694;37.790;2023-12-14T05:26:42;10.46;83.68
75190;HTU21D;69198;44.694;37.790;2023-12-14T05:27:43;10.49;83.66
75190;HTU21D;69198;44.694;37.790;2023-12-14T05:28:45;10.48;83.72
75190;HTU21D;69198;44.694;37.790;2023-12-14T05:29:46;10.49;83.65
75190;HTU21D;69198;44.694;37.790;2023-12-14T05:30:47;10.49;83.55
75190;HTU21D;69198;44.694;37.790;2023-12-14T05:31:48;10.51;83.53
75190;HTU21D;69198;44.694;37.790;2023-12-14T05:32:49;10.51;83.52
75190;HTU21D;69198;44.694;37.790;2023-12-14T05:33:50;10.53;83.49
75190;HTU21D;69198;44.694;37.790;2023-12-14T05:34:51;10.56;83.36
75190;HTU21D;69198;44.694;37.790;2023-12-14T05:35:52;10.56;83.31
75190;HTU21D;69198;44.694;37.790;2023-12-14T05:36:54;10.54;83.35
75190;HTU21D;69198;44.694;37.790;2023-12-14T05:37:55;10.54;83.36
75190;HTU21D;69198;44.694;37.790;2023-12-14T05:38:56;10.56;83.32
75190;HTU21D;69198;44.694;37.790;2023-12-14T05:39:58;10.55;83.30
75190;HTU21D;69198;44.694;37.790;2023-12-14T05:40:59;10.57;83.20
75190;HTU21D;69198;44.694;37.790;2023-12-14T05:42:00;10.59;83.18
75190;HTU21D;69198;44.694;37.790;2023-12-14T05:43:01;10.60;83.17
75190;HTU21D;69198;44.694;37.790;2023-12-14T05:44:02;10.63;83.19
75190;HTU21D;69198;44.694;37.790;2023-12-14T05:45:05;10.66;83.16
75190;HTU21D;69198;44.694;37.790;2023-12-14T05:46:06;10.68;83.07
75190;HTU21D;69198;44.694;37.790;2023-12-14T05:47:07;10.68;82.99
75190;HTU21D;69198;44.694;37.790;2023-12-14T05:48:08;10.72;82.92
75190;HTU21D;69198;44.694;37.790;2023-12-14T05:49:09;10.73;82.90
75190;HTU21D;69198;44.694;37.790;2023-12-14T05:50:11;10.75;82.84
75190;HTU21D;69198;44.694;37.790;2023-12-14T05:51:13;10.77;82.81
75190;HTU21D;69198;44.694;37.790;2023-12-14T05:52:26;10.78;82.73
75190;HTU21D;69198;44.694;37.790;2023-12-14T05:53:27;10.79;82.68
75190;HTU21D;69198;44.694;37.790;2023-12-14T05:54:28;10.82;82.61
75190;HTU21D;69198;44.694;37.790;2023-12-14T05:55:29;10.85;82.52
75190;HTU21D;69198;44.694;37.790;2023-12-14T05:56:30;10.89;82.54
75190;HTU21D;69198;44.694;37.790;2023-12-14T05:57:31;10.89;82.53
75190;HTU21D;69198;44.694;37.790;2023-12-14T05:58:32;10.93;82.44
75190;HTU21D;69198;44.694;37.790;2023-12-14T05:59:33;10.96;82.36
75190;HTU21D;69198;44.694;37.790;2023-12-14T06:00:35;11.00;82.22
75190;HTU21D;69198;44.694;37.790;2023-12-14T06:01:36;11.05;82.18
75190;HTU21D;69198;44.694;37.790;2023-12-14T06:02:37;11.11;82.11
75190;HTU21D;69198;44.694;37.790;2023-12-14T06:03:38;11.17;81.81
75190;HTU21D;69198;44.694;37.790;2023-12-14T06:04:39;11.25;81.60
75190;HTU21D;69198;44.694;37.790;2023-12-14T06:05:41;11.31;81.46
75190;HTU21D;69198;44.694;37.790;2023-12-14T06:06:42;11.33;81.23
75190;HTU21D;69198;44.694;37.790;2023-12-14T06:07:43;11.36;81.17
75190;HTU21D;69198;44.694;37.790;2023-12-14T06:08:44;11.39;81.12
75190;HTU21D;69198;44.694;37.790;2023-12-14T06:09:45;11.42;80.94
75190;HTU21D;69198;44.694;37.790;2023-12-14T06:10:46;11.42;80.91
75190;HTU21D;69198;44.694;37.790;2023-12-14T06:11:48;11.43;80.88
75190;HTU21D;69198;44.694;37.790;2023-12-14T06:12:49;11.46;80.83
75190;HTU21D;69198;44.694;37.790;2023-12-14T06:13:50;11.48;80.62
75190;HTU21D;69198;44.694;37.790;2023-12-14T06:14:51;11.48;80.59
75190;HTU21D;69198;44.694;37.790;2023-12-14T06:15:52;11.51;80.59
75190;HTU21D;69198;44.694;37.790;2023-12-14T06:16:53;11.51;80.60
75190;HTU21D;69198;44.694;37.790;2023-12-14T06:17:54;11.51;80.49
75190;HTU21D;69198;44.694;37.790;2023-12-14T06:18:55;11.48;80.36